• Join FlightAware (Why Join?)
  • Login
  • US Flag 
10:08PM EDT


 

Airport Tracker/Info


-or-


 

Live Flight TrackerFlight Track Log ✈ N789EX ✈ 18-Jan-2014 ✈ KBFI - KMWH

Flight Track Log - Related Links

Times and Time Zones

All times are in EST time to prevent confusion due to time zone crossing. See the N789EX flight status page for this flight to view local times or setup timezone preferences in your user account.

Time Position Orientation Groundspeed Altitude Reporting Facility
EST Latitude Longitude Course Direction KTS MPH feet Rate Location/Type
02:57PM 47.5076 -122.2830 147° Southeast 180 207 1,000  Level FlightAware ADS-B
02:57PM 47.4981 -122.2730 145° Southeast 196 226 1,400 1,320 Climbing FlightAware ADS-B
02:57PM 47.4878 -122.2620 144° Southeast 219 252 1,600 1,020 Climbing FlightAware ADS-B
02:58PM 47.4799 -122.2530 142° Southeast 234 269 1,800 1,980 Climbing FlightAware ADS-B
02:58PM 47.4656 -122.2390 146° Southeast 249 287 2,400 2,640 Climbing FlightAware ADS-B
02:58PM 47.4538 -122.2270 145° Southeast 254 292 3,000 3,000 Climbing FlightAware ADS-B
02:58PM 47.4506 -122.2230 140° Southeast 255 293 3,200 3,000 Climbing FlightAware ADS-B
02:58PM 47.4470 -122.2190 143° Southeast 258 297 3,400 2,520 Climbing FlightAware ADS-B
02:58PM 47.4446 -122.2150 132° Southeast 260 299 3,500 2,520 Climbing FlightAware ADS-B
02:58PM 47.4417 -122.2090 126° Southeast 264 304 3,700 3,420 Climbing FlightAware ADS-B
02:58PM 47.4400 -122.2040 117° Southeast 267 307 3,900 3,420 Climbing FlightAware ADS-B
02:58PM 47.4383 -122.1970 110° East 269 310 4,100 3,420 Climbing FlightAware ADS-B
02:58PM 47.4373 -122.1920 106° East 271 312 4,300 4,260 Climbing FlightAware ADS-B
02:58PM 47.4363 -122.1850 102° East 273 314 4,600 3,600 Climbing FlightAware ADS-B
02:59PM 47.4352 -122.1730 98° East 276 318 4,900 2,760 Climbing FlightAware ADS-B
02:59PM 47.4342 -122.1570 95° East 281 323 5,300 3,120 Climbing FlightAware ADS-B
02:59PM 47.4334 -122.1300 92° East 284 327 6,100 3,060 Climbing FlightAware ADS-B
02:59PM 47.4332 -122.1040 91° East 288 331 6,700 3,000 Climbing FlightAware ADS-B
02:59PM 47.4331 -122.0740 90° East 293 337 7,500 2,760 Climbing FlightAware ADS-B
03:00PM 47.4330 -122.0470 90° East 300 345 8,000 2,640 Climbing FlightAware ADS-B
03:00PM 47.4328 -122.0160 91° East 303 349 8,800 2,880 Climbing FlightAware ADS-B
03:00PM 47.4325 -121.9830 91° East 309 356 9,500 2,100 Climbing FlightAware ADS-B
03:01PM 47.4317 -121.9180 91° East 337 388 10,400 1,380 Climbing FlightAware ADS-B
03:01PM 47.4308 -121.8440 91° East 373 429 10,900 1,140 Climbing FlightAware ADS-B
03:02PM 47.4301 -121.7630 91° East 405 466 11,600 1,320 Climbing FlightAware ADS-B
03:02PM 47.4291 -121.6760 91° East 432 497 12,300 1,800 Climbing FlightAware ADS-B
03:03PM 47.4277 -121.5860 91° East 445 512 13,400 2,280 Climbing FlightAware ADS-B
03:03PM 47.4263 -121.4940 91° East 451 519 14,600 2,220 Climbing FlightAware ADS-B
03:04PM 47.4249 -121.3990 91° East 459 528 15,700 1,920 Climbing FlightAware ADS-B
03:04PM 47.4233 -121.3040 91° East 467 537 16,600 960 Climbing FlightAware ADS-B
03:05PM 47.4216 -121.2080 91° East 463 533 16,700 -120 Climbing FlightAware ADS-B
03:05PM 47.4198 -121.1120 92° East 468 539 16,500 -240 Descending FlightAware ADS-B
03:06PM 47.4180 -121.0160 92° East 467 537 16,500  Level FlightAware ADS-B
03:06PM 47.4160 -120.9180 92° East 465 535 16,500 60 Level FlightAware ADS-B
03:07PM 47.4146 -120.8490 92° East 464 534 16,600 120 Climbing FlightAware ADS-B
03:07PM 47.4103 -120.7730 95° East 465 535 16,600 -420 Level FlightAware ADS-B
03:07PM 47.4041 -120.7160 99° East 461 531 16,300 -1,500 Descending FlightAware ADS-B
03:08PM 47.3914 -120.6210 101° East 448 516 15,400 -2,280 Descending FlightAware ADS-B
03:08PM 47.3794 -120.5310 101° East 446 513 14,000 -2,520 Descending FlightAware ADS-B
03:09PM 47.3675 -120.4420 101° East 438 504 12,900 -780 Descending FlightAware ADS-B
03:10PM 47.3406 -120.2442 101° East 434 499 12,700 -960 Descending Seattle Center
03:11PM 47.3161 -120.0750 102° East 425 489 10,900 -1,380 Descending Seattle Center
03:12PM 47.2944 -119.9103 101° East 413 475 9,900 -780 Descending Seattle Center
03:13PM 47.2644 -119.7669 107° East 336 387 9,400 -1,260 Descending Seattle Center
03:14PM 47.2219 -119.6644 121° Southeast 298 343 7,400 -2,040 Descending Seattle Center
03:15PM 47.1828 -119.5717 122° Southeast 272 313 5,300 -2,040 Descending Seattle Center
03:16PM 47.1353 -119.4969 133° Southeast 252 290 3,300 -1,140 Descending Seattle Center
03:17PM 47.0925 -119.4128 127° Southeast 241 277 3,000 -180 Descending Seattle Center
03:18PM 47.0736 -119.3261 108° East 222 255 3,000  Level Seattle Center
03:19PM 47.0733 -119.2500 90° East 206 237 3,000 -120 Level Seattle Center
03:20PM 47.1175 -119.2761 338° Northwest 185 213 2,800 -600 Descending Seattle Center
03:21PM 47.1644 -119.2978 343° North 168 193 1,800 -840 Descending Seattle Center
03:22PM 47.2056 -119.3167 343° North 160 184 1,200 -300 Descending Seattle Center
03:23PM 47.2372 -119.3286 346° North 156 180 1,200  Level Seattle Center